Aldan, Pennsylvania
Current Conditions -  °F | °C
As of 7:54 AM on Monday 20 Oct 2014 (Local Time) from KPHL Reporting Station
Scattered Clouds Scattered Clouds  
Wind Chill:   Ceiling: Unl
Heat Index:   Visibility: 10mi
Dew Point: -1°   Wind: 0mph
Humidity: 67%   Direction: NA
Pressure: 30.13"   Gusts: NA
Location:  39.9228°N, 75.2984°W
Report Text: KPHL 201154Z 00000KT 10SM FEW180 SCT270 05/M01 A3013 RMK AO2 SLP203 T00501006 10072 20039 51003 $
Loading
Personal Weather Stations






























Interactive Weather Map
Tropical Storm Tracking
New forecast layout! Learn more

10-Day Weather Forecast

Advertisements
Track Severe Weather on mobile